Time;durP1;ratioP1;P1;durP2;ratioP2;P2;SDS_P1;SDS_P2;PMS_P1;PMS_P2;Temp;Humidity;BMP_temperature;BMP_pressure;BME280_temperature;BME280_humidity;BME280_pressure;Samples;Min_cycle;Max_cycle;Signal;HPM_P1;HPM_P2
2022/11/25 00:01:25;;;;;;;13.95;4.75;;;;;;;0.14;100.00;95748.94;5068433;28;24474;-70
2022/11/25 00:03:55;;;;;;;8.10;4.38;;;;;;;0.08;100.00;95751.66;5064760;28;24991;-70
2022/11/25 00:06:22;;;;;;;11.45;5.10;;;;;;;0.05;100.00;95755.09;5067004;28;24451;-69
2022/11/25 00:08:54;;;;;;;7.55;5.05;;;;;;;-0.05;100.00;95749.34;5067661;28;24450;-71
2022/11/25 00:11:21;;;;;;;12.13;4.63;;;;;;;-0.04;100.00;95748.50;5065890;28;24805;-69
2022/11/25 00:13:48;;;;;;;12.27;4.78;;;;;;;-0.01;100.00;95740.78;5062244;28;25010;-69
2022/11/25 00:16:16;;;;;;;7.55;4.72;;;;;;;-0.03;100.00;95744.25;5065852;28;24445;-69
2022/11/25 00:18:44;;;;;;;18.58;4.13;;;;;;;0.10;100.00;95745.63;5066571;28;24434;-70
2022/11/25 00:21:12;;;;;;;24.95;3.92;;;;;;;0.16;100.00;95742.13;5059835;28;25022;-70
2022/11/25 00:23:40;;;;;;;12.63;3.22;;;;;;;0.27;100.00;95735.06;5065567;28;24432;-70
2022/11/25 00:26:09;;;;;;;12.63;3.10;;;;;;;0.23;100.00;95741.13;5059150;28;24442;-70
2022/11/25 00:28:36;;;;;;;10.85;3.40;;;;;;;0.26;100.00;95737.63;5067667;28;24442;-70
2022/11/25 00:31:07;;;;;;;7.27;3.63;;;;;;;0.42;100.00;95731.31;5070001;28;24446;-70
2022/11/25 00:33:34;;;;;;;15.67;3.87;;;;;;;0.53;100.00;95737.00;5069997;28;24442;-70
2022/11/25 00:36:01;;;;;;;9.90;3.42;;;;;;;0.59;100.00;95736.84;5068276;28;24459;-70
2022/11/25 00:38:28;;;;;;;30.83;3.42;;;;;;;0.46;100.00;95740.56;5070231;28;24476;-70
2022/11/25 00:44:34;;;;;;;13.02;2.88;;;;;;;0.67;100.00;95726.47;5064674;28;24444;-70
2022/11/25 00:46:24;;;;;;;7.82;2.65;;;;;;;0.78;100.00;95716.84;5033895;28;24556;-70
2022/11/25 00:48:51;;;;;;;16.43;2.73;;;;;;;0.80;100.00;95712.53;5069782;28;24431;-70
2022/11/25 00:51:18;;;;;;;13.95;3.10;;;;;;;0.84;100.00;95715.84;5062858;28;24444;-70
2022/11/25 00:53:44;;;;;;;7.03;3.20;;;;;;;0.71;100.00;95716.16;5067939;28;24473;-70
2022/11/25 00:56:14;;;;;;;10.93;3.35;;;;;;;0.68;100.00;95720.50;5066419;28;25030;-71
2022/11/25 00:58:41;;;;;;;19.60;3.95;;;;;;;0.50;100.00;95721.78;5067456;28;24484;-71
2022/11/25 01:01:09;;;;;;;9.85;2.85;;;;;;;0.48;100.00;95716.75;5058340;28;24439;-70
2022/11/25 01:03:37;;;;;;;11.32;3.15;;;;;;;0.56;100.00;95729.28;5069773;28;24442;-70
2022/11/25 01:06:04;;;;;;;5.18;2.72;;;;;;;0.64;100.00;95724.84;5068715;28;24439;-69
2022/11/25 01:08:31;;;;;;;3.23;2.70;;;;;;;0.70;100.00;95727.25;5067507;28;24462;-70
2022/11/25 01:10:58;;;;;;;3.83;3.13;;;;;;;0.81;100.00;95721.00;5062011;28;24445;-70
2022/11/25 01:13:25;;;;;;;10.63;3.20;;;;;;;0.90;100.00;95728.44;5061613;28;24468;-69
2022/11/25 01:15:52;;;;;;;3.83;2.78;;;;;;;0.88;100.00;95732.72;5064600;28;24431;-69
2022/11/25 01:18:19;;;;;;;3.83;2.90;;;;;;;0.93;100.00;95728.38;5069677;28;24435;-69
2022/11/25 01:20:46;;;;;;;13.00;3.70;;;;;;;0.94;100.00;95730.03;5059061;28;24446;-69
2022/11/25 01:23:13;;;;;;;10.77;3.42;;;;;;;1.15;100.00;95724.38;5067662;28;24445;-69
2022/11/25 01:25:40;;;;;;;11.75;3.83;;;;;;;0.94;100.00;95732.59;5059880;28;24438;-69
2022/11/25 01:28:07;;;;;;;8.10;4.10;;;;;;;0.74;100.00;95730.53;5066774;28;25068;-70
2022/11/25 01:30:33;;;;;;;10.80;5.10;;;;;;;0.76;100.00;95735.59;5062909;28;24439;-69
2022/11/25 01:33:00;;;;;;;6.50;5.40;;;;;;;0.80;100.00;95737.19;5059597;28;24462;-71
2022/11/25 01:35:28;;;;;;;8.88;5.22;;;;;;;0.73;100.00;95739.88;5069266;28;25000;-71
2022/11/25 01:37:54;;;;;;;6.47;5.10;;;;;;;0.71;100.00;95733.19;5070048;28;24427;-70
2022/11/25 01:40:21;;;;;;;9.27;4.83;;;;;;;0.83;100.00;95739.66;5062775;28;24438;-70
2022/11/25 01:42:48;;;;;;;7.28;4.85;;;;;;;0.67;100.00;95734.13;5063550;28;24439;-70
2022/11/25 01:45:36;;;;;;;6.38;4.82;;;;;;;0.60;100.00;95742.78;5069703;28;24804;-70
2022/11/25 01:48:11;;;;;;;4.70;4.30;;;;;;;0.44;100.00;95744.84;5069354;28;24446;-71
2022/11/25 01:50:42;;;;;;;6.53;4.70;;;;;;;0.42;100.00;95744.06;5063155;28;24453;-70
2022/11/25 01:53:11;;;;;;;5.68;4.32;;;;;;;0.60;100.00;95746.19;5066816;28;25026;-70
2022/11/25 01:55:43;;;;;;;5.30;4.07;;;;;;;0.67;100.00;95745.16;5068948;28;20754;-70
2022/11/25 01:58:15;;;;;;;7.72;4.28;;;;;;;0.66;100.00;95748.56;5068813;28;24514;-70
2022/11/25 02:00:49;;;;;;;10.27;4.63;;;;;;;0.61;100.00;95739.38;5063284;28;24585;-70
2022/11/25 02:03:18;;;;;;;9.60;4.60;;;;;;;0.59;100.00;95741.09;5067795;28;24434;-70
2022/11/25 02:05:52;;;;;;;6.90;4.30;;;;;;;0.63;100.00;95730.81;5069147;28;24526;-70
2022/11/25 02:08:21;;;;;;;6.03;3.97;;;;;;;0.66;100.00;95730.72;5059212;28;24553;-70
2022/11/25 02:10:48;;;;;;;5.30;4.20;;;;;;;0.61;100.00;95731.72;5059129;28;24535;-70
2022/11/25 02:13:15;;;;;;;7.53;4.37;;;;;;;0.49;100.00;95732.84;5067000;28;24526;-70
2022/11/25 02:15:42;;;;;;;6.93;4.10;;;;;;;0.48;100.00;95729.47;5064883;28;24879;-70
2022/11/25 02:18:08;;;;;;;7.00;4.13;;;;;;;0.46;100.00;95727.84;5061200;28;25065;-70
2022/11/25 02:20:35;;;;;;;6.30;4.40;;;;;;;0.44;100.00;95724.47;5062382;28;24553;-70
2022/11/25 02:23:15;;;;;;;11.55;4.70;;;;;;;0.41;100.00;95730.50;5061175;28;24509;-70
2022/11/25 02:25:45;;;;;;;4.53;4.03;;;;;;;0.46;100.00;95728.66;5062456;28;24513;-70
2022/11/25 02:28:15;;;;;;;5.82;4.40;;;;;;;0.45;100.00;95721.91;5067708;28;24442;-70
2022/11/25 02:30:42;;;;;;;8.45;5.15;;;;;;;0.47;100.00;95724.41;5061200;28;24527;-70
2022/11/25 02:33:09;;;;;;;8.13;4.47;;;;;;;0.50;100.00;95731.97;5066090;28;24957;-70
2022/11/25 02:35:38;;;;;;;8.75;4.68;;;;;;;0.55;100.00;95725.03;5068565;28;24526;-70
2022/11/25 02:38:09;;;;;;;4.95;4.45;;;;;;;0.59;100.00;95708.81;5067981;28;24430;-69
2022/11/25 02:40:41;;;;;;;6.28;4.30;;;;;;;0.69;100.00;95714.53;5062246;28;24450;-69
2022/11/25 02:43:09;;;;;;;8.07;4.72;;;;;;;0.62;100.00;95708.72;5062757;28;24442;-70
2022/11/25 02:45:46;;;;;;;6.45;4.88;;;;;;;0.65;100.00;95700.19;5068070;28;24437;-71
2022/11/25 02:48:12;;;;;;;9.68;5.07;;;;;;;0.67;100.00;95701.00;5060687;28;24455;-69
2022/11/25 02:50:39;;;;;;;6.00;4.60;;;;;;;0.63;100.00;95705.34;5064515;28;24450;-70
2022/11/25 02:53:06;;;;;;;7.07;4.55;;;;;;;0.69;100.00;95699.22;5066982;28;24991;-71
2022/11/25 02:55:32;;;;;;;4.83;4.03;;;;;;;0.68;100.00;95697.56;5067175;28;24501;-69
2022/11/25 02:57:59;;;;;;;5.07;4.05;;;;;;;0.35;100.00;95706.88;5061301;28;24434;-70
2022/11/25 03:00:27;;;;;;;4.45;3.75;;;;;;;0.15;100.00;95705.63;5062817;28;24441;-70
2022/11/25 03:02:54;;;;;;;6.83;4.30;;;;;;;0.24;100.00;95695.22;5063923;28;24431;-70
2022/11/25 03:05:21;;;;;;;4.93;3.97;;;;;;;0.41;100.00;95694.81;5066970;28;24476;-71
2022/11/25 03:07:47;;;;;;;5.10;4.13;;;;;;;0.22;100.00;95693.56;5061351;28;25342;-71
2022/11/25 03:10:14;;;;;;;5.68;3.70;;;;;;;0.20;100.00;95691.06;5064039;28;24453;-70
2022/11/25 03:12:41;;;;;;;11.23;3.97;;;;;;;0.17;100.00;95698.78;5063248;28;25014;-71
2022/11/25 03:15:08;;;;;;;5.28;3.40;;;;;;;0.11;100.00;95698.06;5061971;28;24480;-69
2022/11/25 03:17:36;;;;;;;5.43;2.55;;;;;;;0.19;100.00;95697.03;5063555;28;24438;-69
2022/11/25 03:20:03;;;;;;;8.55;3.28;;;;;;;0.36;100.00;95690.69;5060919;28;24443;-70
2022/11/25 03:22:30;;;;;;;28.40;3.20;;;;;;;0.28;100.00;95687.50;5064711;28;24438;-70
2022/11/25 03:24:56;;;;;;;10.35;3.10;;;;;;;0.44;100.00;95682.00;5057524;28;24441;-70
2022/11/25 03:27:23;;;;;;;7.05;2.28;;;;;;;0.43;100.00;95680.31;5064983;28;24458;-70
2022/11/25 03:29:49;;;;;;;3.17;2.55;;;;;;;0.47;100.00;95681.09;5061666;28;24439;-70
2022/11/25 03:32:16;;;;;;;2.60;2.40;;;;;;;0.58;100.00;95674.00;5062894;28;24446;-70
2022/11/25 03:34:44;;;;;;;3.30;2.35;;;;;;;0.60;100.00;95674.00;5065987;28;24996;-71
2022/11/25 03:37:10;;;;;;;4.47;2.50;;;;;;;0.66;100.00;95677.19;5058965;28;24443;-70
2022/11/25 03:39:37;;;;;;;4.63;3.35;;;;;;;0.72;100.00;95677.03;5061061;28;24439;-70
2022/11/25 03:42:04;;;;;;;12.80;10.23;;;;;;;0.79;100.00;95682.81;5068224;28;24797;-70
2022/11/25 03:44:30;;;;;;;12.32;8.55;;;;;;;0.76;100.00;95687.16;5063553;28;24828;-70
2022/11/25 03:46:57;;;;;;;5.65;4.90;;;;;;;0.69;100.00;95689.84;5059421;28;24999;-71
2022/11/25 03:49:23;;;;;;;4.90;3.03;;;;;;;0.63;100.00;95691.72;5061188;28;24435;-70
2022/11/25 03:51:51;;;;;;;3.38;2.70;;;;;;;0.69;100.00;95696.69;5063752;28;24458;-70
2022/11/25 03:54:18;;;;;;;3.45;2.50;;;;;;;0.73;100.00;95694.00;5065150;28;24442;-69
2022/11/25 03:56:44;;;;;;;4.07;2.63;;;;;;;0.76;100.00;95685.44;5058966;28;24993;-69
2022/11/25 03:59:11;;;;;;;3.45;2.60;;;;;;;0.86;100.00;95686.91;5062085;28;24542;-70
2022/11/25 04:01:38;;;;;;;6.00;2.47;;;;;;;0.86;100.00;95686.06;5064196;28;24452;-69
2022/11/25 04:04:04;;;;;;;3.93;2.83;;;;;;;0.87;100.00;95685.19;5064756;28;25209;-70
2022/11/25 04:06:31;;;;;;;3.92;2.47;;;;;;;0.79;100.00;95687.94;5061864;28;24453;-70
2022/11/25 04:08:59;;;;;;;4.30;2.55;;;;;;;0.78;100.00;95686.25;5063046;28;24497;-69
2022/11/25 04:12:45;;;;;;;8.43;3.05;;;;;;;0.81;100.00;95675.97;5070121;28;24437;-69
2022/11/25 04:14:12;;;;;;;7.45;3.83;;;;;;;0.76;100.00;95677.81;5067632;28;25371;-69
2022/11/25 04:16:38;;;;;;;4.03;3.25;;;;;;;0.71;100.00;95665.19;5062943;28;24485;-69
2022/11/25 04:19:05;;;;;;;4.97;3.33;;;;;;;0.69;100.00;95664.38;5068125;28;24431;-70
2022/11/25 04:21:31;;;;;;;3.70;3.40;;;;;;;0.70;100.00;95660.09;5067520;28;24731;-70
2022/11/25 04:23:59;;;;;;;4.82;3.45;;;;;;;0.58;100.00;95665.53;5068235;28;24817;-70
2022/11/25 04:26:25;;;;;;;4.63;3.47;;;;;;;0.63;100.00;95661.13;5063519;28;24438;-70
2022/11/25 04:28:52;;;;;;;4.80;3.65;;;;;;;0.63;100.00;95664.56;5067104;28;24462;-70
2022/11/25 04:31:19;;;;;;;4.38;3.17;;;;;;;0.60;100.00;95667.19;5068666;28;24450;-70
2022/11/25 04:33:45;;;;;;;4.60;3.45;;;;;;;0.60;100.00;95672.28;5068757;28;24439;-70
2022/11/25 04:36:12;;;;;;;3.97;3.17;;;;;;;0.56;100.00;95674.94;5070211;28;25359;-70
2022/11/25 04:38:38;;;;;;;3.80;3.00;;;;;;;0.56;100.00;95667.28;5066051;28;25014;-70
2022/11/25 04:41:06;;;;;;;3.63;2.90;;;;;;;0.61;100.00;95671.38;5068038;28;24439;-70
2022/11/25 04:43:33;;;;;;;3.97;3.20;;;;;;;0.62;100.00;95678.16;5064168;28;24435;-70
2022/11/25 04:46:00;;;;;;;3.90;3.03;;;;;;;0.60;100.00;95674.00;5061525;28;24431;-70
2022/11/25 04:48:27;;;;;;;2.90;2.60;;;;;;;0.62;100.00;95679.88;5067681;28;24447;-70
2022/11/25 04:50:54;;;;;;;4.15;3.00;;;;;;;0.69;100.00;95672.03;5067557;28;24522;-70
2022/11/25 04:53:20;;;;;;;5.47;2.67;;;;;;;0.71;100.00;95665.19;5068690;28;24433;-70
2022/11/25 04:55:47;;;;;;;7.65;2.70;;;;;;;0.65;100.00;95667.88;5065347;28;24988;-70
2022/11/25 04:59:38;;;;;;;9.35;2.55;;;;;;;0.64;100.00;95681.50;5068565;28;24437;-70
2022/11/25 05:01:01;;;;;;;11.93;2.30;;;;;;;0.61;100.00;95679.03;5066917;28;24451;-70
2022/11/25 05:03:27;;;;;;;14.00;2.53;;;;;;;0.39;100.00;95677.91;5062423;28;24462;-69
2022/11/25 05:05:54;;;;;;;13.93;2.50;;;;;;;0.00;100.00;95680.53;5068692;28;24430;-70
2022/11/25 05:08:20;;;;;;;13.55;2.75;;;;;;;-0.17;100.00;95680.06;5066872;28;24449;-69
2022/11/25 05:10:47;;;;;;;7.90;2.42;;;;;;;-0.23;100.00;95677.66;5062214;28;25016;-70
2022/11/25 05:13:14;;;;;;;4.97;3.75;;;;;;;-0.36;100.00;95677.09;5068576;28;24438;-69
2022/11/25 05:15:42;;;;;;;6.30;3.15;;;;;;;-0.30;100.00;95685.44;5067760;28;24437;-69
2022/11/25 05:18:08;;;;;;;22.17;11.27;;;;;;;-0.20;100.00;95683.50;5059650;28;24590;-70
2022/11/25 05:20:35;;;;;;;25.73;11.88;;;;;;;-0.09;100.00;95684.09;5066780;28;25014;-70
2022/11/25 05:23:01;;;;;;;15.82;8.82;;;;;;;0.05;100.00;95683.78;5068114;28;24437;-70
2022/11/25 05:25:28;;;;;;;10.88;6.43;;;;;;;0.19;100.00;95686.88;5068355;28;24999;-70
2022/11/25 05:27:54;;;;;;;10.73;6.43;;;;;;;0.27;100.00;95689.22;5068880;28;24447;-71
2022/11/25 05:30:22;;;;;;;18.48;9.65;;;;;;;0.33;100.00;95691.59;5065076;28;24470;-73
2022/11/25 05:32:49;;;;;;;6.50;3.53;;;;;;;0.12;100.00;95703.16;5055237;28;24435;-69
2022/11/25 05:35:15;;;;;;;8.55;2.28;;;;;;;0.03;100.00;95692.31;5055414;28;24802;-70
2022/11/25 05:37:42;;;;;;;7.43;1.90;;;;;;;-0.11;100.00;95700.28;5068493;28;24439;-69
2022/11/25 05:40:10;;;;;;;3.50;1.75;;;;;;;-0.17;100.00;95702.97;5060572;28;24552;-70
2022/11/25 05:42:36;;;;;;;2.53;1.90;;;;;;;-0.13;100.00;95712.22;5066236;28;24438;-70
2022/11/25 05:45:03;;;;;;;4.28;1.50;;;;;;;-0.04;100.00;95717.94;5069874;28;24445;-70
2022/11/25 05:47:31;;;;;;;2.40;2.08;;;;;;;-0.11;100.00;95713.00;5061647;28;24431;-70
2022/11/25 05:49:57;;;;;;;3.45;2.30;;;;;;;-0.14;100.00;95726.66;5063399;28;24441;-70
2022/11/25 05:52:24;;;;;;;3.20;2.27;;;;;;;0.02;100.00;95728.84;5063568;28;24462;-70
2022/11/25 05:54:50;;;;;;;2.60;2.00;;;;;;;0.15;100.00;95727.69;5064521;28;24438;-71
2022/11/25 05:57:17;;;;;;;2.20;2.00;;;;;;;0.24;100.00;95724.94;5055641;28;24439;-71
2022/11/25 05:59:43;;;;;;;3.17;2.40;;;;;;;0.27;100.00;95729.97;5064335;28;24434;-71
2022/11/25 06:02:10;;;;;;;2.88;2.30;;;;;;;0.24;100.00;95720.69;5066191;28;24450;-70
2022/11/25 06:04:38;;;;;;;4.18;2.42;;;;;;;0.28;100.00;95728.25;5056647;28;24431;-71
2022/11/25 06:07:04;;;;;;;3.75;2.35;;;;;;;0.22;100.00;95727.53;5058228;28;24442;-70
2022/11/25 06:09:31;;;;;;;3.28;2.20;;;;;;;0.33;100.00;95729.81;5064422;28;24880;-70
2022/11/25 06:11:58;;;;;;;3.30;2.35;;;;;;;0.37;100.00;95730.59;5066169;28;24446;-71
2022/11/25 06:14:24;;;;;;;3.83;2.22;;;;;;;0.33;100.00;95721.34;5061761;28;24881;-71
2022/11/25 06:16:52;;;;;;;6.13;2.08;;;;;;;0.37;100.00;95725.47;5059611;28;24812;-71
2022/11/25 06:19:18;;;;;;;3.65;2.50;;;;;;;0.24;100.00;95735.97;5061224;28;24844;-70
2022/11/25 06:21:46;;;;;;;4.55;2.63;;;;;;;0.22;100.00;95722.44;5062581;28;24443;-70
2022/11/25 06:24:13;;;;;;;2.90;2.60;;;;;;;0.20;100.00;95731.00;5063840;28;24477;-70
2022/11/25 06:26:39;;;;;;;4.15;2.88;;;;;;;0.02;100.00;95729.69;5058206;28;24438;-70
2022/11/25 06:29:06;;;;;;;3.20;2.10;;;;;;;-0.20;100.00;95733.56;5066393;28;24984;-68
2022/11/25 06:31:32;;;;;;;3.38;2.00;;;;;;;-0.32;100.00;95735.50;5064373;28;24443;-71
2022/11/25 06:33:59;;;;;;;2.00;1.80;;;;;;;-0.38;100.00;95745.81;5057604;28;24465;-70
2022/11/25 06:36:25;;;;;;;3.60;1.95;;;;;;;-0.36;100.00;95753.44;5057223;28;24439;-72
2022/11/25 06:38:54;;;;;;;2.28;1.67;;;;;;;-0.32;100.00;95752.50;5067593;28;24430;-69
2022/11/25 06:41:22;;;;;;;3.78;1.90;;;;;;;-0.18;100.00;95753.03;5057023;28;24435;-70
2022/11/25 06:43:49;;;;;;;2.77;2.20;;;;;;;-0.14;100.00;95751.28;5062509;28;25052;-69
2022/11/25 06:46:17;;;;;;;2.20;1.75;;;;;;;-0.23;100.00;95765.00;5060286;28;24435;-69
2022/11/25 06:48:44;;;;;;;3.47;2.38;;;;;;;-0.26;100.00;95763.38;5067913;28;24453;-70
2022/11/25 06:51:12;;;;;;;2.08;1.85;;;;;;;-0.14;100.00;95772.47;5067690;28;24442;-70
2022/11/25 06:53:39;;;;;;;2.38;1.80;;;;;;;0.01;100.00;95763.66;5063125;28;24500;-70
2022/11/25 06:56:10;;;;;;;2.40;1.80;;;;;;;0.04;100.00;95770.38;5055423;28;25011;-70
2022/11/25 06:58:37;;;;;;;3.15;1.73;;;;;;;0.11;100.00;95767.69;5063883;28;24427;-69
2022/11/25 07:01:06;;;;;;;3.42;1.60;;;;;;;0.25;100.00;95767.38;5067963;28;24996;-69
2022/11/25 07:03:32;;;;;;;3.63;2.05;;;;;;;0.30;100.00;95774.91;5067134;28;24449;-69
2022/11/25 07:05:59;;;;;;;3.53;1.90;;;;;;;0.32;100.00;95770.63;5066913;28;24439;-69
2022/11/25 07:08:26;;;;;;;4.53;1.70;;;;;;;0.19;100.00;95778.56;5067519;28;24451;-69
2022/11/25 07:10:54;;;;;;;2.38;1.55;;;;;;;0.36;100.00;95773.06;5069224;28;24992;-69
2022/11/25 07:13:22;;;;;;;3.47;1.98;;;;;;;0.51;100.00;95771.03;5069168;28;24437;-69
2022/11/25 07:15:48;;;;;;;4.23;2.30;;;;;;;0.59;100.00;95776.78;5068219;28;24523;-72
2022/11/25 07:18:15;;;;;;;4.43;2.80;;;;;;;0.59;100.00;95782.72;5062400;28;24988;-73
2022/11/25 07:20:41;;;;;;;4.43;3.03;;;;;;;0.67;100.00;95780.00;5067415;28;24442;-70
2022/11/25 07:23:08;;;;;;;5.30;2.70;;;;;;;0.64;100.00;95788.56;5066182;28;24438;-70
2022/11/25 07:25:34;;;;;;;4.30;2.40;;;;;;;0.44;100.00;95796.66;5061889;28;24439;-70
2022/11/25 07:28:01;;;;;;;5.22;3.03;;;;;;;0.27;100.00;95801.31;5055583;28;24466;-70
2022/11/25 07:30:28;;;;;;;4.57;2.95;;;;;;;0.18;100.00;95806.56;5062254;28;24492;-73
2022/11/25 07:32:55;;;;;;;4.22;2.25;;;;;;;0.16;100.00;95809.16;5055634;28;24434;-69
2022/11/25 07:35:22;;;;;;;3.63;2.67;;;;;;;0.21;100.00;95814.16;5062731;28;24438;-70
2022/11/25 07:37:48;;;;;;;5.28;2.60;;;;;;;0.16;100.00;95819.34;5061152;28;24821;-69
2022/11/25 07:40:15;;;;;;;11.90;5.50;;;;;;;0.22;100.00;95816.69;5066268;28;24430;-69
2022/11/25 07:42:42;;;;;;;6.35;4.28;;;;;;;0.37;100.00;95810.44;5070182;28;24435;-70
2022/11/25 07:45:09;;;;;;;8.32;4.05;;;;;;;0.51;100.00;95816.91;5058695;28;24820;-69
2022/11/25 07:47:37;;;;;;;7.40;5.15;;;;;;;0.61;100.00;95818.38;5067027;28;24431;-69
2022/11/25 07:50:04;;;;;;;6.75;4.45;;;;;;;0.66;100.00;95827.56;5068374;28;24458;-70
2022/11/25 07:52:30;;;;;;;5.95;3.20;;;;;;;0.65;100.00;95820.81;5064725;28;24473;-70
2022/11/25 07:54:57;;;;;;;5.50;2.20;;;;;;;0.73;100.00;95806.16;5066604;28;24435;-69
2022/11/25 07:57:23;;;;;;;2.78;2.42;;;;;;;1.00;100.00;95801.25;5060864;28;25019;-69
2022/11/25 07:59:50;;;;;;;4.43;2.42;;;;;;;1.01;100.00;95810.63;5070297;28;24446;-70
2022/11/25 08:02:16;;;;;;;2.45;2.03;;;;;;;1.09;100.00;95808.69;5062833;28;24999;-70
2022/11/25 08:04:44;;;;;;;3.43;2.47;;;;;;;1.13;100.00;95815.41;5067014;28;24500;-71
2022/11/25 08:07:11;;;;;;;2.78;2.28;;;;;;;1.25;100.00;95819.34;5067526;28;24813;-71
2022/11/25 08:09:37;;;;;;;3.63;2.20;;;;;;;1.31;100.00;95824.31;5070368;28;24462;-70
2022/11/25 08:12:04;;;;;;;4.72;2.33;;;;;;;1.44;100.00;95828.19;5071143;28;25029;-70
2022/11/25 08:14:31;;;;;;;4.47;2.30;;;;;;;1.43;100.00;95833.34;5063888;28;24999;-71
2022/11/25 08:16:57;;;;;;;3.28;2.20;;;;;;;1.40;100.00;95821.50;5070306;28;24438;-70
2022/11/25 08:19:24;;;;;;;2.90;2.20;;;;;;;1.44;100.00;95819.72;5063531;28;24431;-69
2022/11/25 08:21:53;;;;;;;3.30;2.40;;;;;;;1.47;100.00;95817.09;5063406;28;25015;-71
2022/11/25 08:24:20;;;;;;;6.10;2.75;;;;;;;1.55;100.00;95819.44;5068736;28;24438;-70
2022/11/25 08:26:48;;;;;;;2.85;2.15;;;;;;;1.66;100.00;95817.41;5071283;28;24441;-70
2022/11/25 08:29:16;;;;;;;3.47;2.33;;;;;;;1.70;100.00;95822.41;5057808;28;24458;-70
2022/11/25 08:31:43;;;;;;;5.20;3.83;;;;;;;1.67;100.00;95819.94;5071192;28;24491;-70
2022/11/25 08:34:17;;;;;;;3.75;3.03;;;;;;;1.64;100.00;95825.13;5070597;28;24453;-70
2022/11/25 08:36:44;;;;;;;6.72;2.42;;;;;;;1.54;100.00;95822.88;5062493;28;24568;-69
2022/11/25 08:39:12;;;;;;;5.10;2.47;;;;;;;1.56;100.00;95823.66;5064664;28;24427;-70
2022/11/25 08:41:38;;;;;;;3.83;2.70;;;;;;;1.42;100.00;95836.78;5063091;28;24438;-70
2022/11/25 08:44:08;;;;;;;8.88;5.55;;;;;;;1.49;100.00;95834.94;5070275;28;24447;-71
2022/11/25 08:46:38;;;;;;;6.65;4.35;;;;;;;1.60;100.00;95841.41;5068776;28;24441;-70
2022/11/25 08:49:06;;;;;;;8.57;5.70;;;;;;;1.69;100.00;95847.97;5066135;28;24476;-70
2022/11/25 08:51:34;;;;;;;13.27;5.00;;;;;;;1.63;100.00;95846.44;5069782;28;25007;-71
2022/11/25 08:54:01;;;;;;;8.93;5.78;;;;;;;1.77;100.00;95850.31;5069768;28;24422;-70
2022/11/25 08:56:29;;;;;;;12.50;7.57;;;;;;;1.87;100.00;95856.88;5068661;28;24438;-70
2022/11/25 08:58:56;;;;;;;5.10;3.67;;;;;;;1.84;100.00;95852.66;5061232;28;24434;-70
2022/11/25 09:01:24;;;;;;;3.35;2.13;;;;;;;1.77;100.00;95856.25;5069494;28;24465;-70
2022/11/25 09:03:54;;;;;;;3.10;2.03;;;;;;;1.77;100.00;95858.00;5066064;28;24422;-70
2022/11/25 09:06:21;;;;;;;5.05;3.22;;;;;;;1.77;100.00;95855.44;5061687;28;24434;-70
2022/11/25 09:08:48;;;;;;;7.68;4.07;;;;;;;1.83;100.00;95855.28;5063087;28;24809;-70
2022/11/25 09:11:15;;;;;;;3.67;2.50;;;;;;;1.90;100.00;95856.78;5067665;28;24489;-69
2022/11/25 09:13:43;;;;;;;3.25;2.50;;;;;;;1.93;100.00;95849.88;5061825;28;24431;-70
2022/11/25 09:16:09;;;;;;;2.85;1.88;;;;;;;2.04;100.00;95846.16;5068157;28;24431;-70
2022/11/25 09:18:37;;;;;;;3.07;2.23;;;;;;;2.14;100.00;95845.03;5058973;28;24989;-70
2022/11/25 09:21:09;;;;;;;5.18;2.10;;;;;;;2.23;100.00;95842.22;5060569;28;24947;-69
2022/11/25 09:23:37;;;;;;;3.20;2.13;;;;;;;2.28;100.00;95839.53;5059255;28;24851;-70
2022/11/25 09:26:05;;;;;;;3.53;1.90;;;;;;;2.33;100.00;95842.78;5065744;28;24459;-70
2022/11/25 09:28:31;;;;;;;4.82;2.10;;;;;;;2.47;100.00;95848.31;5063346;28;25052;-70
2022/11/25 09:30:59;;;;;;;3.63;2.00;;;;;;;2.61;100.00;95845.38;5062764;28;24447;-70
2022/11/25 09:33:26;;;;;;;3.35;2.38;;;;;;;2.74;100.00;95850.94;5066641;28;24441;-72
2022/11/25 09:35:54;;;;;;;4.78;2.33;;;;;;;2.75;100.00;95852.63;5067712;28;24434;-70
2022/11/25 09:38:21;;;;;;;4.95;2.05;;;;;;;2.91;100.00;95852.09;5066748;28;24462;-71
2022/11/25 09:40:54;;;;;;;5.40;2.38;;;;;;;3.09;100.00;95850.66;5070180;28;24843;-70
2022/11/25 09:46:44;;;;;;;5.20;2.30;;;;;;;3.18;100.00;95864.88;5062890;28;24832;-70
2022/11/25 09:49:26;;;;;;;3.15;1.90;;;;;;;3.19;100.00;95863.16;5069659;28;24508;-70
2022/11/25 09:52:00;;;;;;;3.40;1.98;;;;;;;3.33;100.00;95863.53;5058960;28;24450;-70
2022/11/25 09:54:31;;;;;;;5.73;3.10;;;;;;;3.47;100.00;95869.03;5065365;28;24525;-70
2022/11/25 09:57:07;;;;;;;4.30;2.45;;;;;;;3.58;100.00;95864.41;5063905;28;24457;-70
2022/11/25 09:59:45;;;;;;;4.03;2.35;;;;;;;3.74;100.00;95867.25;5069372;28;24434;-70
2022/11/25 10:02:17;;;;;;;6.45;2.83;;;;;;;3.80;100.00;95864.50;5062167;28;24445;-70
2022/11/25 10:04:48;;;;;;;5.75;3.03;;;;;;;3.84;100.00;95867.78;5068110;28;24972;-71
2022/11/25 10:07:24;;;;;;;4.78;2.80;;;;;;;3.91;100.00;95869.25;5066944;28;24450;-70
2022/11/25 10:09:52;;;;;;;4.72;2.95;;;;;;;3.90;100.00;95867.59;5061123;28;24996;-70
2022/11/25 10:12:28;;;;;;;6.60;2.58;;;;;;;3.91;100.00;95868.44;5067427;28;24450;-72
2022/11/25 10:15:00;;;;;;;6.13;2.90;;;;;;;3.97;100.00;95863.94;5064338;28;24443;-71
2022/11/25 10:17:36;;;;;;;3.30;2.28;;;;;;;4.10;100.00;95875.41;5061796;28;24526;-71
2022/11/25 10:20:10;;;;;;;6.47;2.85;;;;;;;4.10;100.00;95874.56;5070221;28;24449;-71
2022/11/25 10:22:40;;;;;;;5.22;2.80;;;;;;;4.17;100.00;95872.63;5059815;28;24446;-71
2022/11/25 10:25:14;;;;;;;3.17;2.53;;;;;;;4.20;100.00;95875.09;5068849;28;24435;-71
2022/11/25 10:27:44;;;;;;;5.68;2.78;;;;;;;4.18;100.00;95877.69;5062936;28;25028;-71
2022/11/25 10:30:16;;;;;;;7.82;2.72;;;;;;;4.15;100.00;95876.97;5068454;28;24450;-71
2022/11/25 10:32:49;;;;;;;6.07;2.30;;;;;;;4.16;100.00;95869.22;5066316;28;24439;-71
2022/11/25 10:35:24;;;;;;;4.50;2.80;;;;;;;4.18;100.00;95876.84;5057295;28;24461;-71
2022/11/25 10:37:54;;;;;;;3.67;2.75;;;;;;;4.16;100.00;95874.34;5058127;28;24423;-71
2022/11/25 10:40:21;;;;;;;5.33;2.93;;;;;;;4.19;100.00;95878.50;5066735;28;24484;-71
2022/11/25 10:42:47;;;;;;;3.95;2.60;;;;;;;4.20;100.00;95880.22;5064230;28;24442;-71
2022/11/25 10:45:14;;;;;;;12.85;2.80;;;;;;;4.24;100.00;95881.78;5058608;28;24430;-72
2022/11/25 10:48:10;;;;;;;4.95;3.20;;;;;;;4.30;100.00;95881.53;5057873;28;24433;-72
2022/11/25 10:50:47;;;;;;;5.20;3.90;;;;;;;4.34;100.00;95896.78;5062364;28;24464;-71
2022/11/25 10:53:17;;;;;;;10.20;5.72;;;;;;;4.35;100.00;95895.88;5063931;28;24427;-71
2022/11/25 10:55:59;;;;;;;6.13;4.05;;;;;;;4.35;100.00;95898.44;5063234;28;24434;-71
2022/11/25 10:58:30;;;;;;;7.70;3.60;;;;;;;4.35;100.00;95900.16;5062637;28;24469;-71
2022/11/25 11:01:12;;;;;;;7.63;3.40;;;;;;;4.32;100.00;95898.53;5069458;28;24435;-71
2022/11/25 11:03:41;;;;;;;5.80;3.53;;;;;;;4.33;100.00;95907.06;5064042;28;24430;-71
2022/11/25 11:06:30;;;;;;;4.75;3.40;;;;;;;4.31;100.00;95903.72;5068367;28;24435;-71
2022/11/25 11:08:56;;;;;;;7.95;4.18;;;;;;;4.31;100.00;95912.25;5067097;28;24480;-71
2022/11/25 11:11:24;;;;;;;6.65;3.47;;;;;;;4.34;100.00;95904.47;5066388;28;24462;-71
2022/11/25 11:13:58;;;;;;;7.57;5.60;;;;;;;4.39;100.00;95908.59;5059166;28;24426;-71
2022/11/25 11:16:33;;;;;;;6.82;4.97;;;;;;;4.41;100.00;95915.31;5063560;28;24434;-71
2022/11/25 11:19:01;;;;;;;8.80;4.93;;;;;;;4.45;100.00;95906.63;5063464;28;24437;-71
2022/11/25 11:21:33;;;;;;;6.82;4.15;;;;;;;4.50;100.00;95909.88;5065843;28;24438;-71
2022/11/25 11:24:01;;;;;;;6.63;3.35;;;;;;;4.56;100.00;95899.38;5063771;28;24433;-71
2022/11/25 11:26:29;;;;;;;5.88;2.67;;;;;;;4.69;100.00;95910.00;5065127;28;24994;-71
2022/11/25 11:29:02;;;;;;;6.45;2.65;;;;;;;4.73;100.00;95915.88;5067446;28;24431;-71
2022/11/25 11:31:34;;;;;;;5.20;2.40;;;;;;;4.71;100.00;95920.22;5065201;28;24463;-71
2022/11/25 11:34:22;;;;;;;5.40;2.50;;;;;;;4.73;100.00;95923.56;5068311;28;24984;-71
2022/11/25 11:36:58;;;;;;;3.55;2.00;;;;;;;4.72;100.00;95921.91;5062836;28;24433;-71
2022/11/25 11:39:47;;;;;;;5.60;2.60;;;;;;;4.75;100.00;95920.06;5068529;28;24423;-71
2022/11/25 11:42:25;;;;;;;4.20;2.45;;;;;;;4.83;100.00;95925.72;5063080;28;24445;-72
2022/11/25 11:45:05;;;;;;;6.95;2.38;;;;;;;4.91;100.00;95924.59;5067822;28;25022;-73